createdAt,value
2022-09-21T00:01:15.071Z,11.95
2022-09-21T00:03:43.692Z,11.94
2022-09-21T00:06:13.272Z,11.92
2022-09-21T00:08:41.256Z,11.89
2022-09-21T00:11:13.099Z,11.87
2022-09-21T00:13:42.199Z,11.86
2022-09-21T00:16:11.646Z,11.81
2022-09-21T00:18:40.142Z,11.79
2022-09-21T00:21:09.162Z,11.75
2022-09-21T00:23:37.564Z,11.74
2022-09-21T00:26:07.183Z,11.72
2022-09-21T00:28:35.222Z,11.71
2022-09-21T00:31:04.478Z,11.67
2022-09-21T00:33:34.075Z,11.68
2022-09-21T00:36:06.092Z,11.68
2022-09-21T00:38:34.107Z,11.68
2022-09-21T00:41:02.184Z,11.67
2022-09-21T00:43:30.042Z,11.65
2022-09-21T00:46:01.547Z,11.66
2022-09-21T00:48:29.863Z,11.64
2022-09-21T00:51:03.025Z,11.62
2022-09-21T00:53:32.100Z,11.62
2022-09-21T00:56:00.907Z,11.59
2022-09-21T00:58:30.370Z,11.55
2022-09-21T01:01:00.491Z,11.54
2022-09-21T01:03:29.726Z,11.52
2022-09-21T01:05:58.964Z,11.52
2022-09-21T01:08:27.741Z,11.50
2022-09-21T01:11:21.198Z,11.52
2022-09-21T01:13:57.091Z,11.50
2022-09-21T01:16:28.234Z,11.48
2022-09-21T01:19:01.101Z,11.47
2022-09-21T01:21:32.521Z,11.46
2022-09-21T01:24:42.092Z,11.42
2022-09-21T01:27:27.862Z,11.38
2022-09-21T01:29:59.927Z,11.34
2022-09-21T01:32:29.564Z,11.30
2022-09-21T01:35:01.328Z,11.26
2022-09-21T01:37:34.277Z,11.25
2022-09-21T01:40:05.010Z,11.22
2022-09-21T01:42:34.522Z,11.23
2022-09-21T01:45:07.169Z,10.82
2022-09-21T01:47:35.414Z,10.61
2022-09-21T01:50:04.468Z,10.46
2022-09-21T01:52:35.632Z,10.36
2022-09-21T01:55:08.014Z,10.25
2022-09-21T01:57:40.177Z,10.19
2022-09-21T02:00:10.904Z,10.12
2022-09-21T02:02:42.805Z,10.06
2022-09-21T02:05:11.605Z,9.98
2022-09-21T02:07:40.431Z,9.93
2022-09-21T02:10:10.112Z,9.89
2022-09-21T02:12:38.332Z,9.83
2022-09-21T02:15:06.564Z,9.80
2022-09-21T02:17:49.836Z,9.71
2022-09-21T02:20:20.939Z,9.68
2022-09-21T02:23:02.437Z,9.71
2022-09-21T02:25:38.479Z,9.64
2022-09-21T02:28:09.614Z,9.62
2022-09-21T02:30:38.194Z,9.55
2022-09-21T02:33:12.576Z,9.61
2022-09-21T02:35:41.173Z,9.41
2022-09-21T02:38:09.921Z,9.31
2022-09-21T02:40:38.278Z,9.24
2022-09-21T02:43:07.191Z,9.18
2022-09-21T02:45:36.215Z,9.12
2022-09-21T02:48:04.727Z,9.07
2022-09-21T02:50:35.211Z,9.04
2022-09-21T02:53:02.721Z,9.00
2022-09-21T02:55:30.225Z,8.97
2022-09-21T02:57:57.694Z,8.95
2022-09-21T03:00:25.158Z,8.91
2022-09-21T03:02:52.795Z,8.89
2022-09-21T03:05:20.288Z,8.87
2022-09-21T03:07:49.186Z,8.85
2022-09-21T03:10:17.431Z,8.82
2022-09-21T03:12:46.103Z,8.78
2022-09-21T03:15:14.547Z,8.74
2022-09-21T03:17:42.083Z,8.70
2022-09-21T03:20:10.405Z,8.69
2022-09-21T03:22:37.840Z,8.68
2022-09-21T03:25:09.186Z,8.66
2022-09-21T03:27:36.726Z,8.66
2022-09-21T03:30:04.544Z,8.64
2022-09-21T03:32:32.024Z,8.64
2022-09-21T03:34:59.431Z,8.63
2022-09-21T03:37:26.975Z,8.60
2022-09-21T03:39:54.423Z,8.58
2022-09-21T03:42:23.321Z,8.57
2022-09-21T03:44:50.797Z,8.56
2022-09-21T03:47:18.245Z,8.53
2022-09-21T03:49:45.699Z,8.52
2022-09-21T03:52:13.304Z,8.50
2022-09-21T03:54:40.813Z,8.48
2022-09-21T03:57:08.922Z,8.47
2022-09-21T03:59:37.770Z,8.44
2022-09-21T04:02:05.411Z,8.42
2022-09-21T04:04:32.815Z,8.40
2022-09-21T04:07:00.397Z,8.38
2022-09-21T04:09:27.842Z,8.36
2022-09-21T04:11:55.292Z,8.34
2022-09-21T04:14:23.358Z,8.33
2022-09-21T04:16:52.556Z,8.33
2022-09-21T04:19:21.040Z,8.33
2022-09-21T04:21:51.255Z,8.31
2022-09-21T04:24:19.289Z,8.29
2022-09-21T04:26:46.939Z,8.27
2022-09-21T04:29:14.517Z,8.26
2022-09-21T04:31:42.285Z,8.26
2022-09-21T04:34:11.687Z,8.23
2022-09-21T04:36:39.151Z,8.20
2022-09-21T04:39:07.162Z,8.17
2022-09-21T04:41:34.810Z,8.14
2022-09-21T04:44:02.524Z,8.12
2022-09-21T04:46:30.062Z,8.09
2022-09-21T04:48:57.719Z,8.07
2022-09-21T04:51:26.589Z,8.05
2022-09-21T04:53:54.205Z,8.03
2022-09-21T04:56:21.760Z,8.00
2022-09-21T04:58:49.224Z,7.99
2022-09-21T05:01:16.733Z,7.99
2022-09-21T05:03:44.297Z,7.97
2022-09-21T05:06:13.443Z,7.95
2022-09-21T05:08:59.795Z,7.94
2022-09-21T05:11:27.260Z,7.93
2022-09-21T05:13:54.835Z,7.92
2022-09-21T05:16:22.382Z,7.90
2022-09-21T05:18:49.869Z,7.89
2022-09-21T05:21:17.383Z,7.87
2022-09-21T05:23:46.262Z,7.86
2022-09-21T05:26:13.768Z,7.84
2022-09-21T05:28:41.529Z,7.84
2022-09-21T05:31:17.968Z,7.84
2022-09-21T05:33:48.066Z,7.85
2022-09-21T05:36:18.985Z,7.85
2022-09-21T05:38:48.337Z,7.83
2022-09-21T05:41:15.972Z,7.83
2022-09-21T05:43:43.702Z,7.80
2022-09-21T05:46:12.847Z,7.79
2022-09-21T05:48:41.964Z,7.81
2022-09-21T05:51:11.672Z,7.83
2022-09-21T05:53:44.922Z,7.83
2022-09-21T05:56:15.500Z,7.82
2022-09-21T05:58:44.585Z,7.84
2022-09-21T06:01:19.709Z,7.84
2022-09-21T06:03:49.451Z,7.85
2022-09-21T06:06:17.175Z,7.87
2022-09-21T06:08:44.642Z,7.89
2022-09-21T06:11:12.233Z,7.92
2022-09-21T06:13:41.957Z,7.94
2022-09-21T06:16:09.519Z,7.98
2022-09-21T06:18:38.123Z,8.01
2022-09-21T06:21:05.920Z,8.04
2022-09-21T06:23:33.566Z,8.08
2022-09-21T06:26:01.052Z,8.08
2022-09-21T06:28:29.681Z,8.11
2022-09-21T06:30:58.835Z,8.12
2022-09-21T06:33:26.561Z,8.14
2022-09-21T06:35:55.034Z,8.18
2022-09-21T06:38:22.666Z,8.19
2022-09-21T06:40:50.452Z,8.23
2022-09-21T06:43:18.024Z,8.23
2022-09-21T06:45:45.613Z,8.25
2022-09-21T06:48:14.476Z,8.27
2022-09-21T06:50:42.087Z,8.27
2022-09-21T06:53:09.604Z,8.31
2022-09-21T06:55:37.114Z,8.32
2022-09-21T06:58:05.216Z,8.35
2022-09-21T07:00:32.905Z,8.39
2022-09-21T07:03:00.584Z,8.42
2022-09-21T07:05:29.510Z,8.45
2022-09-21T07:08:00.447Z,8.48
2022-09-21T07:10:28.304Z,8.51
2022-09-21T07:12:55.826Z,8.54
2022-09-21T07:15:23.653Z,8.59
2022-09-21T07:17:53.200Z,8.64
2022-09-21T07:20:33.902Z,8.69
2022-09-21T07:23:01.756Z,8.75
2022-09-21T07:25:29.304Z,8.81
2022-09-21T07:27:56.734Z,8.86
2022-09-21T07:30:24.295Z,8.92
2022-09-21T07:32:51.796Z,8.96
2022-09-21T07:35:20.172Z,9.02
2022-09-21T07:37:48.995Z,9.07
2022-09-21T07:40:16.643Z,9.12
2022-09-21T07:42:44.854Z,9.20
2022-09-21T07:45:12.635Z,9.27
2022-09-21T07:47:40.149Z,9.35
2022-09-21T07:50:08.131Z,9.40
2022-09-21T07:52:35.779Z,9.48
2022-09-21T07:55:04.901Z,9.58
2022-09-21T07:57:49.738Z,9.70
2022-09-21T08:00:17.355Z,9.84
2022-09-21T08:02:47.632Z,9.94
2022-09-21T08:05:15.486Z,10.05
2022-09-21T08:07:42.969Z,10.15
2022-09-21T08:10:12.546Z,10.24
2022-09-21T08:12:40.086Z,10.35
2022-09-21T08:15:16.493Z,10.45
2022-09-21T08:17:52.995Z,10.54
2022-09-21T08:20:20.663Z,10.60
2022-09-21T08:22:48.235Z,10.66
2022-09-21T08:25:17.176Z,10.68
2022-09-21T08:27:44.718Z,10.70
2022-09-21T08:30:13.656Z,10.76
2022-09-21T08:32:50.918Z,10.82
2022-09-21T08:35:19.176Z,10.84
2022-09-21T08:37:46.681Z,10.89
2022-09-21T08:40:16.954Z,10.97
2022-09-21T08:42:50.823Z,11.10
2022-09-21T08:45:18.823Z,11.26
2022-09-21T08:47:46.803Z,11.36
2022-09-21T08:50:21.229Z,11.46
2022-09-21T08:52:48.702Z,11.61
2022-09-21T08:55:17.987Z,11.70
2022-09-21T08:57:47.089Z,11.83
2022-09-21T09:00:15.384Z,11.96
2022-09-21T09:02:47.157Z,12.04
2022-09-21T09:05:23.728Z,12.10
2022-09-21T09:07:59.941Z,12.11
2022-09-21T09:10:32.748Z,12.10
2022-09-21T09:13:04.308Z,12.07
2022-09-21T09:15:39.231Z,12.11
2022-09-21T09:18:09.458Z,12.20
2022-09-21T09:20:37.789Z,12.29
2022-09-21T09:23:07.021Z,12.43
2022-09-21T09:25:36.127Z,12.59
2022-09-21T09:28:07.111Z,12.70
2022-09-21T09:30:34.999Z,12.71
2022-09-21T09:33:03.526Z,12.69
2022-09-21T09:35:33.180Z,12.66
2022-09-21T09:38:01.617Z,12.66
2022-09-21T09:40:40.983Z,12.70
2022-09-21T09:43:10.112Z,12.78
2022-09-21T09:45:45.440Z,12.97
2022-09-21T09:48:30.806Z,13.12
2022-09-21T09:50:58.666Z,13.33
2022-09-21T09:53:26.604Z,13.50
2022-09-21T09:55:54.542Z,13.68
2022-09-21T09:58:23.952Z,13.79
2022-09-21T10:00:52.417Z,13.80
2022-09-21T10:03:20.475Z,13.80
2022-09-21T10:05:48.048Z,13.90
2022-09-21T10:08:29.183Z,14.02
2022-09-21T10:10:56.704Z,14.17
2022-09-21T10:13:26.980Z,14.30
2022-09-21T10:15:55.589Z,14.30
2022-09-21T10:18:23.759Z,14.37
2022-09-21T10:20:58.270Z,14.48
2022-09-21T10:23:25.964Z,14.58
2022-09-21T10:25:54.676Z,14.58
2022-09-21T10:28:22.303Z,14.55
2022-09-21T10:30:51.477Z,14.61
2022-09-21T10:33:20.435Z,14.73
2022-09-21T10:35:51.507Z,14.89
2022-09-21T10:38:22.747Z,15.00
2022-09-21T10:40:50.562Z,15.02
2022-09-21T10:43:25.102Z,15.11
2022-09-21T10:45:55.316Z,15.21
2022-09-21T10:48:23.554Z,15.16
2022-09-21T10:50:51.855Z,15.10
2022-09-21T10:53:21.324Z,15.14
2022-09-21T10:56:04.902Z,15.19
2022-09-21T10:58:39.134Z,15.23
2022-09-21T11:01:15.960Z,15.27
2022-09-21T11:03:46.287Z,15.26
2022-09-21T11:06:15.925Z,15.18
2022-09-21T11:08:45.404Z,15.10
2022-09-21T11:11:18.981Z,15.09
2022-09-21T11:13:47.729Z,15.15
2022-09-21T11:16:17.781Z,15.24
2022-09-21T11:18:47.389Z,15.38
2022-09-21T11:21:17.332Z,15.48
2022-09-21T11:23:48.124Z,15.58
2022-09-21T11:28:17.741Z,16.05
2022-09-21T11:31:11.844Z,16.03
2022-09-21T11:33:53.504Z,16.10
2022-09-21T11:36:29.502Z,16.18
2022-09-21T11:39:01.279Z,16.27
2022-09-21T11:41:54.967Z,16.30
2022-09-21T11:44:45.280Z,16.28
2022-09-21T11:47:34.449Z,16.33
2022-09-21T11:50:33.365Z,16.33
2022-09-21T11:53:20.484Z,16.55
2022-09-21T11:56:12.882Z,16.76
2022-09-21T11:58:45.133Z,16.79
2022-09-21T12:01:24.628Z,17.00
2022-09-21T12:04:04.485Z,17.21
2022-09-21T12:06:44.314Z,17.26
2022-09-21T12:09:34.395Z,17.17
2022-09-21T12:12:06.889Z,17.12
2022-09-21T12:17:16.332Z,16.95
2022-09-21T12:19:48.386Z,17.03
2022-09-21T12:22:19.519Z,17.16
2022-09-21T12:24:49.034Z,17.25
2022-09-21T12:27:24.462Z,17.32
2022-09-21T12:29:54.737Z,17.37
2022-09-21T12:32:27.024Z,17.30
2022-09-21T12:34:57.111Z,17.15
2022-09-21T12:37:28.055Z,17.02
2022-09-21T12:40:02.231Z,16.87
2022-09-21T12:42:34.508Z,16.68
2022-09-21T12:45:05.051Z,16.71
2022-09-21T12:47:42.772Z,16.64
2022-09-21T12:50:19.366Z,16.57
2022-09-21T12:52:47.236Z,16.54
2022-09-21T12:55:26.084Z,16.45
2022-09-21T12:58:15.211Z,16.49
2022-09-21T13:00:58.690Z,16.56
2022-09-21T13:03:32.100Z,16.67
2022-09-21T13:06:23.877Z,16.74
2022-09-21T13:08:51.903Z,16.82
2022-09-21T13:11:21.653Z,16.84
2022-09-21T13:13:52.848Z,16.86
2022-09-21T13:16:26.295Z,16.96
2022-09-21T13:18:59.053Z,17.00
2022-09-21T13:21:29.812Z,17.07
2022-09-21T13:23:58.934Z,17.14
2022-09-21T13:26:33.968Z,17.14
2022-09-21T13:29:07.787Z,17.09
2022-09-21T13:31:57.498Z,17.04
2022-09-21T13:34:32.618Z,17.00
2022-09-21T13:37:36.328Z,16.97
2022-09-21T13:40:40.190Z,16.94
2022-09-21T13:46:08.572Z,16.87
2022-09-21T13:48:37.338Z,16.82
2022-09-21T13:51:10.776Z,16.76
2022-09-21T13:53:41.985Z,16.76
2022-09-21T13:56:21.455Z,16.68
2022-09-21T13:58:52.786Z,16.70
2022-09-21T14:01:45.028Z,16.68
2022-09-21T14:04:20.842Z,16.66
2022-09-21T14:09:22.828Z,16.64
2022-09-21T14:11:57.493Z,16.62
2022-09-21T14:14:28.771Z,16.62
2022-09-21T14:16:58.644Z,16.62
2022-09-21T14:22:32.992Z,16.67
2022-09-21T14:25:27.277Z,16.71
2022-09-21T14:27:55.537Z,16.72
2022-09-21T14:30:25.066Z,16.75
2022-09-21T14:32:55.920Z,16.75
2022-09-21T14:35:28.152Z,16.71
2022-09-21T14:38:01.612Z,16.76
2022-09-21T14:40:33.674Z,16.78
2022-09-21T14:43:03.437Z,16.77
2022-09-21T14:45:42.468Z,16.72
2022-09-21T14:48:13.034Z,16.77
2022-09-21T14:50:44.857Z,16.75
2022-09-21T14:53:39.168Z,16.73
2022-09-21T14:56:22.444Z,16.68
2022-09-21T14:59:01.187Z,16.68
2022-09-21T15:01:41.321Z,16.67
2022-09-21T15:04:27.619Z,16.65
2022-09-21T15:07:21.014Z,16.65
2022-09-21T15:10:32.930Z,16.67
2022-09-21T15:13:07.100Z,16.80
2022-09-21T15:15:38.358Z,16.83
2022-09-21T15:18:17.872Z,16.85
2022-09-21T15:20:46.243Z,16.89
2022-09-21T15:23:19.289Z,16.96
2022-09-21T15:25:58.836Z,17.02
2022-09-21T15:28:28.298Z,17.07
2022-09-21T15:30:58.416Z,17.08
2022-09-21T15:34:07.772Z,17.08
2022-09-21T15:36:38.425Z,17.07
2022-09-21T15:39:06.685Z,17.10
2022-09-21T15:41:43.058Z,17.11
2022-09-21T15:44:15.880Z,17.13
2022-09-21T15:46:46.922Z,17.12
2022-09-21T15:49:21.966Z,17.13
2022-09-21T15:53:55.783Z,17.06
2022-09-21T15:56:25.778Z,17.02
2022-09-21T15:59:05.070Z,17.09
2022-09-21T16:01:32.778Z,17.09
2022-09-21T16:04:05.437Z,17.05
2022-09-21T16:06:37.887Z,17.05
2022-09-21T16:09:34.370Z,17.02
2022-09-21T16:12:02.462Z,17.02
2022-09-21T16:14:47.963Z,17.02
2022-09-21T16:17:24.730Z,16.95
2022-09-21T16:20:19.503Z,17.04
2022-09-21T16:22:49.016Z,17.04
2022-09-21T16:25:34.436Z,17.00
2022-09-21T16:28:03.816Z,17.01
2022-09-21T16:30:51.119Z,17.03
2022-09-21T16:33:41.017Z,17.03
2022-09-21T16:36:40.616Z,17.01
2022-09-21T16:39:15.524Z,17.01
2022-09-21T16:41:48.477Z,16.99
2022-09-21T16:44:20.777Z,16.98
2022-09-21T16:46:53.179Z,16.93
2022-09-21T16:49:24.805Z,16.92
2022-09-21T16:51:55.805Z,16.87
2022-09-21T16:54:25.167Z,16.83
2022-09-21T16:56:55.533Z,16.77
2022-09-21T16:59:23.362Z,16.76
2022-09-21T17:01:56.070Z,16.72
2022-09-21T17:04:25.971Z,16.66
2022-09-21T17:06:55.080Z,16.62
2022-09-21T17:09:29.152Z,16.57
2022-09-21T17:12:01.590Z,16.54
2022-09-21T17:14:35.225Z,16.51
2022-09-21T17:17:05.691Z,16.45
2022-09-21T17:19:33.608Z,16.42
2022-09-21T17:22:01.286Z,16.40
2022-09-21T17:24:49.365Z,16.34
2022-09-21T17:27:19.684Z,16.31
2022-09-21T17:29:49.891Z,16.26
2022-09-21T17:32:47.776Z,16.21
2022-09-21T17:35:18.559Z,16.17
2022-09-21T17:37:46.290Z,16.13
2022-09-21T17:40:15.405Z,16.08
2022-09-21T17:42:46.454Z,16.03
2022-09-21T17:45:19.092Z,16.00
2022-09-21T17:47:50.244Z,15.95
2022-09-21T17:50:24.190Z,15.91
2022-09-21T17:53:10.057Z,15.87
2022-09-21T17:55:39.165Z,15.80
2022-09-21T17:58:14.960Z,15.77
2022-09-21T18:00:50.372Z,15.74
2022-09-21T18:03:22.450Z,15.70
2022-09-21T18:05:52.744Z,15.66
2022-09-21T18:08:20.797Z,15.61
2022-09-21T18:10:56.876Z,15.57
2022-09-21T18:13:29.502Z,15.50
2022-09-21T18:16:06.323Z,15.45
2022-09-21T18:18:46.778Z,15.41
2022-09-21T18:21:18.245Z,15.36
2022-09-21T18:23:59.535Z,15.33
2022-09-21T18:26:27.520Z,15.26
2022-09-21T18:28:58.225Z,15.22
2022-09-21T18:31:44.939Z,15.17
2022-09-21T18:34:29.186Z,15.13
2022-09-21T18:37:00.370Z,15.10
2022-09-21T18:39:35.540Z,15.04
2022-09-21T18:42:12.832Z,15.01
2022-09-21T18:44:44.254Z,14.99
2022-09-21T18:47:16.275Z,14.95
2022-09-21T18:49:51.285Z,14.91
2022-09-21T18:52:32.161Z,14.88
2022-09-21T18:55:00.101Z,14.85
2022-09-21T18:57:32.271Z,14.81
2022-09-21T19:00:00.496Z,14.78
2022-09-21T19:02:29.219Z,14.76
2022-09-21T19:04:59.182Z,14.72
2022-09-21T19:07:30.769Z,14.70
2022-09-21T19:10:06.876Z,14.67
2022-09-21T19:12:48.264Z,14.63
2022-09-21T19:15:42.295Z,14.61
2022-09-21T19:18:20.106Z,14.57
2022-09-21T19:21:00.060Z,14.54
2022-09-21T19:23:45.259Z,14.45
2022-09-21T19:26:16.442Z,14.50
2022-09-21T19:28:55.500Z,14.51
2022-09-21T19:31:23.423Z,14.48
2022-09-21T19:33:51.799Z,14.45
2022-09-21T19:36:21.309Z,14.43
2022-09-21T19:38:49.766Z,14.39
2022-09-21T19:41:32.310Z,14.39
2022-09-21T19:44:07.333Z,14.35
2022-09-21T19:46:39.322Z,14.30
2022-09-21T19:49:13.896Z,14.26
2022-09-21T19:51:46.812Z,14.18
2022-09-21T19:54:33.832Z,14.19
2022-09-21T19:57:19.692Z,14.16
2022-09-21T19:59:48.336Z,14.12
2022-09-21T20:02:18.483Z,14.08
2022-09-21T20:04:50.750Z,13.95
2022-09-21T20:07:27.555Z,13.95
2022-09-21T20:10:06.515Z,13.96
2022-09-21T20:12:38.438Z,13.95
2022-09-21T20:15:12.914Z,13.87
2022-09-21T20:17:45.982Z,13.88
2022-09-21T20:20:17.942Z,13.85
2022-09-21T20:22:47.379Z,13.83
2022-09-21T20:25:21.748Z,13.80
2022-09-21T20:27:51.492Z,13.78
2022-09-21T20:30:22.230Z,13.75
2022-09-21T20:32:52.346Z,13.68
2022-09-21T20:35:21.957Z,13.67
2022-09-21T20:37:51.763Z,13.62
2022-09-21T20:40:20.535Z,13.61
2022-09-21T20:42:48.330Z,13.59
2022-09-21T20:45:16.235Z,13.55
2022-09-21T20:47:44.001Z,13.52
2022-09-21T20:50:13.449Z,13.49
2022-09-21T20:52:41.878Z,13.45
2022-09-21T20:55:13.412Z,13.45
2022-09-21T20:57:41.497Z,13.42
2022-09-21T21:00:11.222Z,13.43
2022-09-21T21:02:38.973Z,13.43
2022-09-21T21:05:07.986Z,13.40
2022-09-21T21:07:36.539Z,13.40
2022-09-21T21:10:04.713Z,13.38
2022-09-21T21:12:33.893Z,13.33
2022-09-21T21:15:01.626Z,13.30
2022-09-21T21:17:29.364Z,13.26
2022-09-21T21:19:57.230Z,13.22
2022-09-21T21:22:24.949Z,13.18
2022-09-21T21:24:52.805Z,13.15
2022-09-21T21:27:22.819Z,13.09
2022-09-21T21:29:52.869Z,13.07
2022-09-21T21:32:23.097Z,13.05
2022-09-21T21:34:51.216Z,13.05
2022-09-21T21:37:19.880Z,13.02
2022-09-21T21:39:47.708Z,13.00
2022-09-21T21:42:15.730Z,12.99
2022-09-21T21:44:43.726Z,12.98
2022-09-21T21:47:38.166Z,12.95
2022-09-21T21:50:00.760Z,12.93
2022-09-21T21:52:28.714Z,12.90
2022-09-21T21:54:56.371Z,12.89
2022-09-21T21:57:24.167Z,12.88
2022-09-21T21:59:52.002Z,12.86
2022-09-21T22:02:21.255Z,12.84
2022-09-21T22:04:49.064Z,12.80
2022-09-21T22:07:16.725Z,12.83
2022-09-21T22:09:44.652Z,12.80
2022-09-21T22:12:12.547Z,12.79
2022-09-21T22:14:40.411Z,12.75
2022-09-21T22:17:08.151Z,12.75
2022-09-21T22:19:37.932Z,12.70
2022-09-21T22:22:06.114Z,12.68
2022-09-21T22:24:33.782Z,12.66
2022-09-21T22:27:01.425Z,12.64
2022-09-21T22:29:29.141Z,12.64
2022-09-21T22:31:56.791Z,12.62
2022-09-21T22:34:24.490Z,12.60
2022-09-21T22:36:53.866Z,12.58
2022-09-21T22:39:21.562Z,12.57
2022-09-21T22:41:49.246Z,12.53
2022-09-21T22:44:17.255Z,12.48
2022-09-21T22:46:44.948Z,12.47
2022-09-21T22:49:12.635Z,12.46
2022-09-21T22:51:40.351Z,12.43
2022-09-21T22:54:09.438Z,12.40
2022-09-21T22:56:37.233Z,12.38
2022-09-21T22:59:06.060Z,12.35
2022-09-21T23:01:35.218Z,12.33
2022-09-21T23:04:05.055Z,12.30
2022-09-21T23:06:35.086Z,12.28
2022-09-21T23:09:05.161Z,12.27
2022-09-21T23:11:35.531Z,12.23
2022-09-21T23:14:03.592Z,12.21
2022-09-21T23:16:31.650Z,12.17
2022-09-21T23:18:59.625Z,12.15
2022-09-21T23:21:29.396Z,12.06
2022-09-21T23:23:59.729Z,12.11
2022-09-21T23:26:28.502Z,12.09
2022-09-21T23:28:59.316Z,12.07
2022-09-21T23:31:27.777Z,12.06
2022-09-21T23:33:57.217Z,12.05
2022-09-21T23:36:29.594Z,12.02
2022-09-21T23:38:57.658Z,12.00
2022-09-21T23:41:27.129Z,11.94
2022-09-21T23:43:55.386Z,11.97
2022-09-21T23:46:26.227Z,11.95
2022-09-21T23:48:54.090Z,11.94
2022-09-21T23:51:22.065Z,11.92
2022-09-21T23:53:49.878Z,11.90
2022-09-21T23:56:19.333Z,11.89
2022-09-21T23:58:48.082Z,11.86
